sensor_id;sensor_type;location;lat;lon;timestamp;pressure;altitude;pressure_sealevel;temperature;humidity
23361;BME280;11852;50.082;18.554;2022-10-16T00:00:49;98757.0;;;13.25;85.65
23361;BME280;11852;50.082;18.554;2022-10-16T00:01:56;98757.0;;;13.36;85.19
23361;BME280;11852;50.082;18.554;2022-10-16T00:03:06;98759.5;;;13.39;85.13
23361;BME280;11852;50.082;18.554;2022-10-16T00:04:16;98761.5;;;13.32;85.37
23361;BME280;11852;50.082;18.554;2022-10-16T00:05:28;98762.5;;;13.33;85.13
23361;BME280;11852;50.082;18.554;2022-10-16T00:06:40;98763.5;;;13.32;85.06
23361;BME280;11852;50.082;18.554;2022-10-16T00:07:49;98764.5;;;13.41;85.15
23361;BME280;11852;50.082;18.554;2022-10-16T00:08:59;98764.0;;;13.39;85.24
23361;BME280;11852;50.082;18.554;2022-10-16T00:10:06;98766.0;;;13.26;85.65
23361;BME280;11852;50.082;18.554;2022-10-16T00:11:21;98770.49;;;13.26;85.9
23361;BME280;11852;50.082;18.554;2022-10-16T00:12:29;98763.5;;;13.18;85.97
23361;BME280;11852;50.082;18.554;2022-10-16T00:13:36;98763.5;;;13.35;85.26
23361;BME280;11852;50.082;18.554;2022-10-16T00:14:43;98765.0;;;13.19;86.0
23361;BME280;11852;50.082;18.554;2022-10-16T00:15:54;98768.0;;;13.23;85.82
23361;BME280;11852;50.082;18.554;2022-10-16T00:17:02;98767.0;;;13.26;85.66
23361;BME280;11852;50.082;18.554;2022-10-16T00:18:12;98773.5;;;13.28;85.57
23361;BME280;11852;50.082;18.554;2022-10-16T00:19:21;98766.0;;;13.27;85.67
23361;BME280;11852;50.082;18.554;2022-10-16T00:20:30;98766.0;;;13.22;85.94
23361;BME280;11852;50.082;18.554;2022-10-16T00:21:39;98767.0;;;13.26;85.62
23361;BME280;11852;50.082;18.554;2022-10-16T00:22:48;98762.0;;;13.15;86.15
23361;BME280;11852;50.082;18.554;2022-10-16T00:24:04;98761.0;;;13.1;86.31
23361;BME280;11852;50.082;18.554;2022-10-16T00:25:12;98761.0;;;13.26;85.61
23361;BME280;11852;50.082;18.554;2022-10-16T00:26:21;98763.0;;;13.19;85.97
23361;BME280;11852;50.082;18.554;2022-10-16T00:27:30;98765.5;;;13.12;86.29
23361;BME280;11852;50.082;18.554;2022-10-16T00:28:37;98763.5;;;13.1;86.35
23361;BME280;11852;50.082;18.554;2022-10-16T00:29:44;98762.0;;;13.19;85.9
23361;BME280;11852;50.082;18.554;2022-10-16T00:30:54;98758.5;;;13.19;85.67
23361;BME280;11852;50.082;18.554;2022-10-16T00:32:00;98761.5;;;13.27;85.67
23361;BME280;11852;50.082;18.554;2022-10-16T00:33:10;98762.0;;;13.28;85.67
23361;BME280;11852;50.082;18.554;2022-10-16T00:34:17;98762.0;;;13.29;85.65
23361;BME280;11852;50.082;18.554;2022-10-16T00:35:27;98761.0;;;13.39;85.21
23361;BME280;11852;50.082;18.554;2022-10-16T00:36:37;98763.5;;;13.34;85.39
23361;BME280;11852;50.082;18.554;2022-10-16T00:37:46;98765.5;;;13.25;85.78
23361;BME280;11852;50.082;18.554;2022-10-16T00:38:59;98765.5;;;13.28;85.57
23361;BME280;11852;50.082;18.554;2022-10-16T00:40:09;98763.5;;;13.31;85.46
23361;BME280;11852;50.082;18.554;2022-10-16T00:41:17;98760.5;;;13.38;85.26
23361;BME280;11852;50.082;18.554;2022-10-16T00:42:27;98761.5;;;13.34;85.47
23361;BME280;11852;50.082;18.554;2022-10-16T00:43:42;98762.5;;;13.36;85.29
23361;BME280;11852;50.082;18.554;2022-10-16T00:44:48;98760.5;;;13.44;84.99
23361;BME280;11852;50.082;18.554;2022-10-16T00:45:57;98759.0;;;13.44;85.51
23361;BME280;11852;50.082;18.554;2022-10-16T00:47:07;98759.5;;;13.36;85.22
23361;BME280;11852;50.082;18.554;2022-10-16T00:48:13;98759.5;;;13.38;85.18
23361;BME280;11852;50.082;18.554;2022-10-16T00:49:21;98759.5;;;13.4;85.07
23361;BME280;11852;50.082;18.554;2022-10-16T00:50:31;98760.0;;;13.28;85.54
23361;BME280;11852;50.082;18.554;2022-10-16T00:51:44;98763.0;;;13.22;85.71
23361;BME280;11852;50.082;18.554;2022-10-16T00:52:48;98762.0;;;13.08;86.24
23361;BME280;11852;50.082;18.554;2022-10-16T00:53:56;98760.0;;;13.14;85.93
23361;BME280;11852;50.082;18.554;2022-10-16T00:55:11;98758.5;;;13.2;85.68
23361;BME280;11852;50.082;18.554;2022-10-16T00:56:18;98757.49;;;13.19;85.69
23361;BME280;11852;50.082;18.554;2022-10-16T00:57:26;98756.0;;;13.17;85.79
23361;BME280;11852;50.082;18.554;2022-10-16T00:58:36;98757.0;;;13.29;85.32
23361;BME280;11852;50.082;18.554;2022-10-16T00:59:53;98756.01;;;13.1;85.32
23361;BME280;11852;50.082;18.554;2022-10-16T01:01:01;98757.5;;;13.07;86.18
23361;BME280;11852;50.082;18.554;2022-10-16T01:02:10;98756.5;;;13.09;86.01
23361;BME280;11852;50.082;18.554;2022-10-16T01:03:23;98757.0;;;13.06;86.16
23361;BME280;11852;50.082;18.554;2022-10-16T01:04:35;98758.0;;;13.05;86.16
23361;BME280;11852;50.082;18.554;2022-10-16T01:05:45;98758.5;;;13.07;86.04
23361;BME280;11852;50.082;18.554;2022-10-16T01:08:16;98760.5;;;13.0;86.25
23361;BME280;11852;50.082;18.554;2022-10-16T01:10:40;98759.0;;;13.07;86.0
23361;BME280;11852;50.082;18.554;2022-10-16T01:14:59;98758.0;;;12.95;86.31
23361;BME280;11852;50.082;18.554;2022-10-16T01:16:40;98758.0;;;12.98;85.85
23361;BME280;11852;50.082;18.554;2022-10-16T01:19:09;98760.5;;;12.97;86.1
23361;BME280;11852;50.082;18.554;2022-10-16T01:21:40;98768.5;;;13.11;85.47
23361;BME280;11852;50.082;18.554;2022-10-16T01:24:00;98774.5;;;13.19;85.23
23361;BME280;11852;50.082;18.554;2022-10-16T01:25:05;98777.5;;;13.15;85.35
23361;BME280;11852;50.082;18.554;2022-10-16T01:27:31;98776.0;;;13.18;85.19
23361;BME280;11852;50.082;18.554;2022-10-16T01:30:04;98777.0;;;13.07;85.6
23361;BME280;11852;50.082;18.554;2022-10-16T01:31:10;98778.5;;;13.08;85.46
23361;BME280;11852;50.082;18.554;2022-10-16T01:33:50;98777.5;;;13.1;85.33
23361;BME280;11852;50.082;18.554;2022-10-16T01:34:52;98774.5;;;13.03;85.57
23361;BME280;11852;50.082;18.554;2022-10-16T01:35:59;98774.5;;;12.95;85.76
23361;BME280;11852;50.082;18.554;2022-10-16T01:37:07;98775.5;;;12.87;86.0
23361;BME280;11852;50.082;18.554;2022-10-16T01:38:17;98777.0;;;12.81;86.21
23361;BME280;11852;50.082;18.554;2022-10-16T01:39:31;98778.0;;;12.75;86.38
23361;BME280;11852;50.082;18.554;2022-10-16T01:40:39;98780.0;;;12.89;85.85
23361;BME280;11852;50.082;18.554;2022-10-16T01:41:59;98778.0;;;13.0;85.47
23361;BME280;11852;50.082;18.554;2022-10-16T01:43:03;98777.5;;;13.01;85.46
23361;BME280;11852;50.082;18.554;2022-10-16T01:44:11;98777.5;;;12.99;85.55
23361;BME280;11852;50.082;18.554;2022-10-16T01:45:20;98779.51;;;12.98;85.51
23361;BME280;11852;50.082;18.554;2022-10-16T01:46:27;98779.51;;;12.81;86.25
23361;BME280;11852;50.082;18.554;2022-10-16T01:47:37;98778.5;;;12.85;85.99
23361;BME280;11852;50.082;18.554;2022-10-16T01:48:47;98781.5;;;12.93;85.6
23361;BME280;11852;50.082;18.554;2022-10-16T01:49:55;98784.0;;;12.84;86.01
23361;BME280;11852;50.082;18.554;2022-10-16T01:51:11;98781.0;;;12.91;85.68
23361;BME280;11852;50.082;18.554;2022-10-16T01:52:21;98782.99;;;12.91;85.71
23361;BME280;11852;50.082;18.554;2022-10-16T01:53:29;98786.0;;;12.84;85.99
23361;BME280;11852;50.082;18.554;2022-10-16T01:54:37;98787.5;;;12.93;85.51
23361;BME280;11852;50.082;18.554;2022-10-16T01:55:46;98788.0;;;12.89;85.68
23361;BME280;11852;50.082;18.554;2022-10-16T01:56:59;98786.5;;;12.88;85.89
23361;BME280;11852;50.082;18.554;2022-10-16T01:58:07;98791.0;;;12.87;85.69
23361;BME280;11852;50.082;18.554;2022-10-16T01:59:15;98788.0;;;12.96;85.34
23361;BME280;11852;50.082;18.554;2022-10-16T02:00:22;98791.5;;;12.93;85.48
23361;BME280;11852;50.082;18.554;2022-10-16T02:01:31;98792.51;;;12.94;85.46
23361;BME280;11852;50.082;18.554;2022-10-16T02:02:41;98794.99;;;12.85;85.74
23361;BME280;11852;50.082;18.554;2022-10-16T02:03:50;98797.0;;;12.95;85.07
23361;BME280;11852;50.082;18.554;2022-10-16T02:05:04;98797.5;;;13.1;84.84
23361;BME280;11852;50.082;18.554;2022-10-16T02:06:14;98797.0;;;13.1;84.79
23361;BME280;11852;50.082;18.554;2022-10-16T02:07:24;98796.0;;;12.99;85.26
23361;BME280;11852;50.082;18.554;2022-10-16T02:08:37;98797.0;;;13.0;85.15
23361;BME280;11852;50.082;18.554;2022-10-16T02:09:47;98799.5;;;12.91;85.46
23361;BME280;11852;50.082;18.554;2022-10-16T02:10:55;98796.5;;;13.05;84.88
23361;BME280;11852;50.082;18.554;2022-10-16T02:12:06;98800.0;;;12.98;85.22
23361;BME280;11852;50.082;18.554;2022-10-16T02:13:16;98801.0;;;13.06;84.9
23361;BME280;11852;50.082;18.554;2022-10-16T02:14:17;98802.0;;;12.92;85.4
23361;BME280;11852;50.082;18.554;2022-10-16T02:15:28;98800.5;;;12.99;85.09
23361;BME280;11852;50.082;18.554;2022-10-16T02:16:38;98805.51;;;12.89;85.48
23361;BME280;11852;50.082;18.554;2022-10-16T02:17:45;98805.0;;;12.83;85.67
23361;BME280;11852;50.082;18.554;2022-10-16T02:18:55;98806.5;;;12.91;85.33
23361;BME280;11852;50.082;18.554;2022-10-16T02:20:03;98808.5;;;12.93;85.39
23361;BME280;11852;50.082;18.554;2022-10-16T02:22:28;98812.0;;;13.13;84.69
23361;BME280;11852;50.082;18.554;2022-10-16T02:24:56;98807.99;;;13.02;85.18
23361;BME280;11852;50.082;18.554;2022-10-16T02:26:06;98805.5;;;13.06;84.94
23361;BME280;11852;50.082;18.554;2022-10-16T02:28:40;98799.5;;;12.91;85.78
23361;BME280;11852;50.082;18.554;2022-10-16T02:29:47;98802.0;;;12.99;85.18
23361;BME280;11852;50.082;18.554;2022-10-16T02:30:58;98801.5;;;13.05;85.07
23361;BME280;11852;50.082;18.554;2022-10-16T02:32:04;98802.5;;;13.01;85.26
23361;BME280;11852;50.082;18.554;2022-10-16T02:33:13;98803.0;;;12.85;85.87
23361;BME280;11852;50.082;18.554;2022-10-16T02:34:24;98801.5;;;12.86;85.68
23361;BME280;11852;50.082;18.554;2022-10-16T02:35:32;98799.5;;;12.87;85.68
23361;BME280;11852;50.082;18.554;2022-10-16T02:36:41;98796.5;;;12.91;85.6
23361;BME280;11852;50.082;18.554;2022-10-16T02:37:52;98797.5;;;12.85;85.87
23361;BME280;11852;50.082;18.554;2022-10-16T02:39:02;98796.0;;;12.84;85.85
23361;BME280;11852;50.082;18.554;2022-10-16T02:40:07;98797.5;;;12.93;85.54
23361;BME280;11852;50.082;18.554;2022-10-16T02:41:16;98801.0;;;12.93;85.63
23361;BME280;11852;50.082;18.554;2022-10-16T02:42:31;98799.5;;;13.06;85.17
23361;BME280;11852;50.082;18.554;2022-10-16T02:43:37;98802.0;;;12.99;85.51
23361;BME280;11852;50.082;18.554;2022-10-16T02:44:45;98797.0;;;13.05;85.19
23361;BME280;11852;50.082;18.554;2022-10-16T02:45:52;98798.5;;;13.1;85.01
23361;BME280;11852;50.082;18.554;2022-10-16T02:47:00;98800.5;;;13.2;84.72
23361;BME280;11852;50.082;18.554;2022-10-16T02:48:08;98800.5;;;13.1;85.18
23361;BME280;11852;50.082;18.554;2022-10-16T02:49:18;98800.0;;;13.05;85.32
23361;BME280;11852;50.082;18.554;2022-10-16T02:50:27;98801.0;;;13.1;85.1
23361;BME280;11852;50.082;18.554;2022-10-16T02:51:34;98801.0;;;13.11;84.99
23361;BME280;11852;50.082;18.554;2022-10-16T02:52:45;98801.0;;;13.13;85.01
23361;BME280;11852;50.082;18.554;2022-10-16T02:53:55;98804.5;;;13.16;84.83
23361;BME280;11852;50.082;18.554;2022-10-16T02:55:02;98806.0;;;13.2;84.66
23361;BME280;11852;50.082;18.554;2022-10-16T02:56:18;98805.0;;;13.22;84.66
23361;BME280;11852;50.082;18.554;2022-10-16T02:57:25;98805.5;;;13.13;84.97
23361;BME280;11852;50.082;18.554;2022-10-16T02:58:32;98806.0;;;13.13;84.88
23361;BME280;11852;50.082;18.554;2022-10-16T02:59:41;98806.5;;;13.2;84.63
23361;BME280;11852;50.082;18.554;2022-10-16T03:00:51;98806.5;;;13.2;84.69
23361;BME280;11852;50.082;18.554;2022-10-16T03:01:59;98807.5;;;13.22;84.62
23361;BME280;11852;50.082;18.554;2022-10-16T03:03:11;98808.0;;;13.15;84.85
23361;BME280;11852;50.082;18.554;2022-10-16T03:04:23;98810.0;;;13.07;85.14
23361;BME280;11852;50.082;18.554;2022-10-16T03:05:31;98807.49;;;13.04;84.83
23361;BME280;11852;50.082;18.554;2022-10-16T03:06:38;98807.5;;;13.07;85.03
23361;BME280;11852;50.082;18.554;2022-10-16T03:07:50;98809.0;;;13.07;85.02
23361;BME280;11852;50.082;18.554;2022-10-16T03:09:00;98810.0;;;13.09;84.94
23361;BME280;11852;50.082;18.554;2022-10-16T03:10:09;98809.5;;;13.17;84.65
23361;BME280;11852;50.082;18.554;2022-10-16T03:11:21;98809.0;;;13.17;84.72
23361;BME280;11852;50.082;18.554;2022-10-16T03:12:31;98811.5;;;13.11;84.86
23361;BME280;11852;50.082;18.554;2022-10-16T03:13:41;98818.5;;;13.08;84.93
23361;BME280;11852;50.082;18.554;2022-10-16T03:14:51;98818.5;;;13.22;84.45
23361;BME280;11852;50.082;18.554;2022-10-16T03:16:05;98819.49;;;13.23;84.24
23361;BME280;11852;50.082;18.554;2022-10-16T03:17:16;98819.5;;;13.36;84.13
23361;BME280;11852;50.082;18.554;2022-10-16T03:18:23;98820.0;;;13.42;84.01
23361;BME280;11852;50.082;18.554;2022-10-16T03:19:42;98823.0;;;13.44;84.0
23361;BME280;11852;50.082;18.554;2022-10-16T03:20:50;98822.0;;;13.23;84.73
23361;BME280;11852;50.082;18.554;2022-10-16T03:21:58;98822.0;;;13.2;84.69
23361;BME280;11852;50.082;18.554;2022-10-16T03:23:07;98822.0;;;13.24;84.56
23361;BME280;11852;50.082;18.554;2022-10-16T03:24:15;98823.0;;;13.36;84.16
23361;BME280;11852;50.082;18.554;2022-10-16T03:25:26;98820.49;;;13.28;84.49
23361;BME280;11852;50.082;18.554;2022-10-16T03:26:35;98821.5;;;13.36;84.13
23361;BME280;11852;50.082;18.554;2022-10-16T03:27:40;98825.5;;;13.3;84.4
23361;BME280;11852;50.082;18.554;2022-10-16T03:28:47;98824.5;;;13.32;84.28
23361;BME280;11852;50.082;18.554;2022-10-16T03:30:00;98825.0;;;13.34;84.22
23361;BME280;11852;50.082;18.554;2022-10-16T03:31:17;98824.5;;;13.18;84.84
23361;BME280;11852;50.082;18.554;2022-10-16T03:32:24;98825.0;;;13.23;84.54
23361;BME280;11852;50.082;18.554;2022-10-16T03:33:33;98823.5;;;13.15;84.82
23361;BME280;11852;50.082;18.554;2022-10-16T03:34:44;98823.0;;;13.21;84.57
23361;BME280;11852;50.082;18.554;2022-10-16T03:35:52;98823.0;;;13.06;85.12
23361;BME280;11852;50.082;18.554;2022-10-16T03:36:59;98820.49;;;13.11;84.8
23361;BME280;11852;50.082;18.554;2022-10-16T03:38:09;98821.0;;;13.05;85.18
23361;BME280;11852;50.082;18.554;2022-10-16T03:39:18;98819.5;;;13.16;84.69
23361;BME280;11852;50.082;18.554;2022-10-16T03:40:26;98819.0;;;13.07;85.04
23361;BME280;11852;50.082;18.554;2022-10-16T03:41:39;98821.5;;;13.07;85.53
23361;BME280;11852;50.082;18.554;2022-10-16T03:42:48;98821.0;;;13.02;85.11
23361;BME280;11852;50.082;18.554;2022-10-16T03:43:56;98820.5;;;13.11;84.7
23361;BME280;11852;50.082;18.554;2022-10-16T03:45:04;98824.5;;;13.02;85.18
23361;BME280;11852;50.082;18.554;2022-10-16T03:46:16;98825.0;;;13.01;85.24
23361;BME280;11852;50.082;18.554;2022-10-16T03:47:22;98827.0;;;13.01;85.19
23361;BME280;11852;50.082;18.554;2022-10-16T03:48:31;98824.0;;;13.03;85.06
23361;BME280;11852;50.082;18.554;2022-10-16T03:49:41;98825.5;;;13.09;84.85
23361;BME280;11852;50.082;18.554;2022-10-16T03:50:50;98824.5;;;12.86;85.73
23361;BME280;11852;50.082;18.554;2022-10-16T03:52:00;98826.0;;;12.95;85.24
23361;BME280;11852;50.082;18.554;2022-10-16T03:53:11;98823.5;;;13.09;84.78
23361;BME280;11852;50.082;18.554;2022-10-16T03:54:21;98818.99;;;13.1;84.71
23361;BME280;11852;50.082;18.554;2022-10-16T03:55:31;98819.0;;;13.03;85.01
23361;BME280;11852;50.082;18.554;2022-10-16T03:56:39;98815.5;;;13.02;85.01
23361;BME280;11852;50.082;18.554;2022-10-16T03:57:48;98818.5;;;13.05;84.87
23361;BME280;11852;50.082;18.554;2022-10-16T03:58:56;98815.0;;;12.95;85.22
23361;BME280;11852;50.082;18.554;2022-10-16T04:00:04;98811.0;;;12.88;85.49
23361;BME280;11852;50.082;18.554;2022-10-16T04:01:11;98807.0;;;13.02;84.84
23361;BME280;11852;50.082;18.554;2022-10-16T04:02:19;98807.0;;;13.02;84.85
23361;BME280;11852;50.082;18.554;2022-10-16T04:03:26;98808.0;;;13.11;84.53
23361;BME280;11852;50.082;18.554;2022-10-16T04:04:34;98808.0;;;13.02;84.79
23361;BME280;11852;50.082;18.554;2022-10-16T04:05:46;98813.5;;;13.07;84.57
23361;BME280;11852;50.082;18.554;2022-10-16T04:06:56;98818.5;;;12.99;84.78
23361;BME280;11852;50.082;18.554;2022-10-16T04:08:05;98821.0;;;13.03;84.51
23361;BME280;11852;50.082;18.554;2022-10-16T04:09:13;98823.5;;;12.99;84.66
23361;BME280;11852;50.082;18.554;2022-10-16T04:10:25;98823.0;;;12.94;84.76
23361;BME280;11852;50.082;18.554;2022-10-16T04:11:31;98824.5;;;12.93;84.76
23361;BME280;11852;50.082;18.554;2022-10-16T04:12:39;98824.0;;;12.93;84.82
23361;BME280;11852;50.082;18.554;2022-10-16T04:13:46;98828.0;;;12.93;84.79
23361;BME280;11852;50.082;18.554;2022-10-16T04:14:58;98830.0;;;12.94;84.76
23361;BME280;11852;50.082;18.554;2022-10-16T04:16:09;98826.5;;;13.0;84.52
23361;BME280;11852;50.082;18.554;2022-10-16T04:17:18;98829.0;;;12.85;85.07
23361;BME280;11852;50.082;18.554;2022-10-16T04:18:27;98830.01;;;12.84;85.09
23361;BME280;11852;50.082;18.554;2022-10-16T04:19:36;98831.0;;;12.8;85.17
23361;BME280;11852;50.082;18.554;2022-10-16T04:20:46;98833.5;;;12.88;84.83
23361;BME280;11852;50.082;18.554;2022-10-16T04:21:55;98836.0;;;12.88;84.84
23361;BME280;11852;50.082;18.554;2022-10-16T04:23:04;98841.0;;;12.84;85.03
23361;BME280;11852;50.082;18.554;2022-10-16T04:24:16;98840.0;;;12.83;84.97
23361;BME280;11852;50.082;18.554;2022-10-16T04:25:24;98841.5;;;12.81;85.12
23361;BME280;11852;50.082;18.554;2022-10-16T04:26:31;98841.5;;;12.78;85.15
23361;BME280;11852;50.082;18.554;2022-10-16T04:27:43;98841.0;;;12.85;84.9
23361;BME280;11852;50.082;18.554;2022-10-16T04:28:57;98845.5;;;12.91;84.9
23361;BME280;11852;50.082;18.554;2022-10-16T04:30:06;98850.0;;;12.97;84.56
23361;BME280;11852;50.082;18.554;2022-10-16T04:31:16;98847.0;;;13.0;84.46
23361;BME280;11852;50.082;18.554;2022-10-16T04:33:32;98845.0;;;12.89;84.77
23361;BME280;11852;50.082;18.554;2022-10-16T04:34:38;98842.5;;;12.94;84.54
23361;BME280;11852;50.082;18.554;2022-10-16T04:35:41;98845.0;;;12.96;84.5
23361;BME280;11852;50.082;18.554;2022-10-16T04:36:48;98843.0;;;12.86;84.85
23361;BME280;11852;50.082;18.554;2022-10-16T04:37:53;98841.5;;;12.82;84.96
23361;BME280;11852;50.082;18.554;2022-10-16T04:38:57;98843.5;;;12.7;85.32
23361;BME280;11852;50.082;18.554;2022-10-16T04:40:02;98843.0;;;12.66;85.44
23361;BME280;11852;50.082;18.554;2022-10-16T04:41:07;98844.49;;;12.61;85.62
23361;BME280;11852;50.082;18.554;2022-10-16T04:42:11;98845.5;;;12.57;85.67
23361;BME280;11852;50.082;18.554;2022-10-16T04:43:16;98845.0;;;12.64;85.42
23361;BME280;11852;50.082;18.554;2022-10-16T04:44:20;98842.51;;;12.74;85.08
23361;BME280;11852;50.082;18.554;2022-10-16T04:45:25;98842.01;;;12.7;85.31
23361;BME280;11852;50.082;18.554;2022-10-16T04:46:29;98842.01;;;12.59;85.69
23361;BME280;11852;50.082;18.554;2022-10-16T04:47:34;98840.5;;;12.59;85.71
23361;BME280;11852;50.082;18.554;2022-10-16T04:48:38;98844.0;;;12.58;85.67
23361;BME280;11852;50.082;18.554;2022-10-16T04:49:42;98851.0;;;12.45;86.18
23361;BME280;11852;50.082;18.554;2022-10-16T04:50:47;98850.5;;;12.48;86.01
23361;BME280;11852;50.082;18.554;2022-10-16T04:51:51;98851.5;;;12.5;85.92
23361;BME280;11852;50.082;18.554;2022-10-16T04:52:55;98850.0;;;12.52;85.88
23361;BME280;11852;50.082;18.554;2022-10-16T04:54:00;98849.0;;;12.52;85.89
23361;BME280;11852;50.082;18.554;2022-10-16T04:55:05;98850.5;;;12.65;85.39
23361;BME280;11852;50.082;18.554;2022-10-16T04:56:09;98851.0;;;12.59;85.76
23361;BME280;11852;50.082;18.554;2022-10-16T04:57:14;98852.5;;;12.64;85.51
23361;BME280;11852;50.082;18.554;2022-10-16T04:58:18;98852.5;;;12.52;85.92
23361;BME280;11852;50.082;18.554;2022-10-16T04:59:22;98853.0;;;12.57;85.73
23361;BME280;11852;50.082;18.554;2022-10-16T05:00:27;98853.0;;;12.71;85.26
23361;BME280;11852;50.082;18.554;2022-10-16T05:01:31;98852.5;;;12.62;85.67
23361;BME280;11852;50.082;18.554;2022-10-16T05:02:36;98851.5;;;12.57;85.85
23361;BME280;11852;50.082;18.554;2022-10-16T05:03:40;98855.51;;;12.55;85.87
23361;BME280;11852;50.082;18.554;2022-10-16T05:04:45;98861.5;;;12.64;85.53
23361;BME280;11852;50.082;18.554;2022-10-16T05:05:49;98864.0;;;12.66;85.51
23361;BME280;11852;50.082;18.554;2022-10-16T05:06:54;98863.5;;;12.68;85.49
23361;BME280;11852;50.082;18.554;2022-10-16T05:07:59;98864.5;;;12.67;85.56
23361;BME280;11852;50.082;18.554;2022-10-16T05:09:03;98867.0;;;12.73;85.29
23361;BME280;11852;50.082;18.554;2022-10-16T05:10:08;98867.01;;;12.73;85.28
23361;BME280;11852;50.082;18.554;2022-10-16T05:11:12;98870.49;;;12.57;85.96
23361;BME280;11852;50.082;18.554;2022-10-16T05:12:16;98870.49;;;12.6;85.76
23361;BME280;11852;50.082;18.554;2022-10-16T05:13:21;98873.0;;;12.61;85.74
23361;BME280;11852;50.082;18.554;2022-10-16T05:14:25;98873.0;;;12.77;85.13
23361;BME280;11852;50.082;18.554;2022-10-16T05:15:30;98873.5;;;12.8;85.11
23361;BME280;11852;50.082;18.554;2022-10-16T05:16:34;98876.5;;;12.81;85.08
23361;BME280;11852;50.082;18.554;2022-10-16T05:17:39;98878.0;;;12.76;85.21
23361;BME280;11852;50.082;18.554;2022-10-16T05:18:43;98880.51;;;12.89;84.79
23361;BME280;11852;50.082;18.554;2022-10-16T05:19:47;98879.0;;;12.88;84.88
23361;BME280;11852;50.082;18.554;2022-10-16T05:20:52;98877.5;;;12.91;84.75
23361;BME280;11852;50.082;18.554;2022-10-16T05:21:57;98879.5;;;12.92;84.69
23361;BME280;11852;50.082;18.554;2022-10-16T05:23:01;98880.0;;;12.94;84.63
23361;BME280;11852;50.082;18.554;2022-10-16T05:24:06;98879.0;;;13.0;84.43
23361;BME280;11852;50.082;18.554;2022-10-16T05:25:11;98880.0;;;13.03;84.39
23361;BME280;11852;50.082;18.554;2022-10-16T05:26:15;98879.5;;;12.99;84.56
23361;BME280;11852;50.082;18.554;2022-10-16T05:27:20;98880.0;;;12.98;84.56
23361;BME280;11852;50.082;18.554;2022-10-16T05:28:24;98879.5;;;13.01;84.39
23361;BME280;11852;50.082;18.554;2022-10-16T05:29:29;98878.0;;;12.99;84.47
23361;BME280;11852;50.082;18.554;2022-10-16T05:30:33;98877.5;;;13.0;84.43
23361;BME280;11852;50.082;18.554;2022-10-16T05:31:38;98877.5;;;13.02;84.35
23361;BME280;11852;50.082;18.554;2022-10-16T05:32:46;98875.5;;;12.98;84.53
23361;BME280;11852;50.082;18.554;2022-10-16T05:33:50;98877.5;;;12.99;84.47
23361;BME280;11852;50.082;18.554;2022-10-16T05:34:54;98878.5;;;13.01;84.4
23361;BME280;11852;50.082;18.554;2022-10-16T05:36:06;98876.5;;;13.05;84.27
23361;BME280;11852;50.082;18.554;2022-10-16T05:37:09;98877.0;;;13.1;84.13
23361;BME280;11852;50.082;18.554;2022-10-16T05:38:14;98879.5;;;13.15;84.01
23361;BME280;11852;50.082;18.554;2022-10-16T05:39:18;98880.5;;;13.14;84.01
23361;BME280;11852;50.082;18.554;2022-10-16T05:40:23;98883.5;;;13.04;84.34
23361;BME280;11852;50.082;18.554;2022-10-16T05:41:28;98881.5;;;13.07;84.21
23361;BME280;11852;50.082;18.554;2022-10-16T05:42:32;98885.5;;;13.02;84.35
23361;BME280;11852;50.082;18.554;2022-10-16T05:43:36;98886.0;;;13.09;84.12
23361;BME280;11852;50.082;18.554;2022-10-16T05:44:41;98887.5;;;13.14;84.01
23361;BME280;11852;50.082;18.554;2022-10-16T05:45:53;98887.5;;;13.17;83.93
23361;BME280;11852;50.082;18.554;2022-10-16T05:46:50;98889.0;;;13.05;84.35
23361;BME280;11852;50.082;18.554;2022-10-16T05:47:55;98891.0;;;13.15;83.98
23361;BME280;11852;50.082;18.554;2022-10-16T05:48:59;98892.0;;;13.2;83.87
23361;BME280;11852;50.082;18.554;2022-10-16T05:50:03;98892.0;;;13.21;83.9
23361;BME280;11852;50.082;18.554;2022-10-16T05:51:09;98895.0;;;13.0;84.68
23361;BME280;11852;50.082;18.554;2022-10-16T05:52:12;98896.0;;;13.02;84.49
23361;BME280;11852;50.082;18.554;2022-10-16T05:53:16;98900.0;;;13.11;84.17
23361;BME280;11852;50.082;18.554;2022-10-16T05:54:20;98899.5;;;13.13;84.16
23361;BME280;11852;50.082;18.554;2022-10-16T05:55:25;98902.5;;;13.05;84.57
23361;BME280;11852;50.082;18.554;2022-10-16T05:56:30;98907.5;;;13.11;84.32
23361;BME280;11852;50.082;18.554;2022-10-16T05:57:34;98906.0;;;13.15;84.25
23361;BME280;11852;50.082;18.554;2022-10-16T05:58:39;98909.5;;;13.15;84.33
23361;BME280;11852;50.082;18.554;2022-10-16T05:59:43;98911.5;;;13.14;84.42
23361;BME280;11852;50.082;18.554;2022-10-16T06:00:54;98909.5;;;13.22;84.21
23361;BME280;11852;50.082;18.554;2022-10-16T06:01:58;98914.0;;;13.16;84.54
23361;BME280;11852;50.082;18.554;2022-10-16T06:03:02;98914.5;;;13.25;84.18
23361;BME280;11852;50.082;18.554;2022-10-16T06:04:08;98919.99;;;13.12;84.8
23361;BME280;11852;50.082;18.554;2022-10-16T06:05:11;98918.0;;;13.11;84.77
23361;BME280;11852;50.082;18.554;2022-10-16T06:06:18;98921.5;;;13.24;84.35
23361;BME280;11852;50.082;18.554;2022-10-16T06:07:21;98919.5;;;13.18;84.65
23361;BME280;11852;50.082;18.554;2022-10-16T06:08:25;98919.5;;;13.24;84.43
23361;BME280;11852;50.082;18.554;2022-10-16T06:09:30;98920.0;;;13.29;84.34
23361;BME280;11852;50.082;18.554;2022-10-16T06:10:34;98919.5;;;13.39;84.12
23361;BME280;11852;50.082;18.554;2022-10-16T06:11:39;98920.0;;;13.43;84.06
23361;BME280;11852;50.082;18.554;2022-10-16T06:12:43;98921.5;;;13.4;84.36
23361;BME280;11852;50.082;18.554;2022-10-16T06:13:52;98926.0;;;13.39;84.38
23361;BME280;11852;50.082;18.554;2022-10-16T06:14:56;98926.5;;;13.47;84.09
23361;BME280;11852;50.082;18.554;2022-10-16T06:16:01;98928.5;;;13.57;83.85
23361;BME280;11852;50.082;18.554;2022-10-16T06:17:05;98931.0;;;13.69;83.66
23361;BME280;11852;50.082;18.554;2022-10-16T06:18:09;98927.5;;;13.77;83.56
23361;BME280;11852;50.082;18.554;2022-10-16T06:19:14;98932.5;;;13.85;83.45
23361;BME280;11852;50.082;18.554;2022-10-16T06:20:19;98934.0;;;13.77;83.85